Luxemburg, Iowa
Current Conditions -  °F | °C
As of 1:53 AM on Friday 31 Oct 2014 (Local Time) from KDBQ Reporting Station
Broken Clouds Broken Clouds  
Wind Chill: 30°   Ceiling: 4800
Heat Index: 40°   Visibility: 10mi
Dew Point: 27°   Wind: 21mph
Humidity: 60%   Direction: 320°NW
Pressure: 30.14"   Gusts: 29mph
Location:  42.6°N, 91.07°W
Report Text: KDBQ 310653Z AUTO 32018G25KT 10SM FEW037 BKN048 04/M03 A3014 RMK AO2 PK WND 33026/0606 SLP214 T00441028
Loading
Personal Weather Stations






























Interactive Weather Map
Tropical Storm Tracking
New forecast layout! Learn more

10-Day Weather Forecast

Advertisements
Track Severe Weather on mobile